Time;durP1;ratioP1;P1;durP2;ratioP2;P2;SDS_P1;SDS_P2;PMS_P1;PMS_P2;Temp;Humidity;BMP_temperature;BMP_pressure;BME280_temperature;BME280_humidity;BME280_pressure;Samples;Min_cycle;Max_cycle;Signal;HPM_P1;HPM_P2
2023/06/28 00:01:14;;;;;;;0.37;0.37;;;15.90;99.90;;;;;;4393329;32;20081;-75
2023/06/28 00:03:40;;;;;;;10.77;0.82;;;15.90;99.90;;;;;;4393313;32;20201;-76
2023/06/28 00:06:05;;;;;;;1.17;0.30;;;15.80;99.90;;;;;;4393587;32;20070;-76
2023/06/28 00:08:31;;;;;;;0.30;0.30;;;15.90;99.90;;;;;;4393329;32;20121;-75
2023/06/28 00:10:56;;;;;;;0.45;0.45;;;15.90;99.90;;;;;;4391916;32;20090;-75
2023/06/28 00:13:22;;;;;;;0.45;0.40;;;15.90;99.90;;;;;;4391555;32;20146;-75
2023/06/28 00:15:48;;;;;;;1.35;0.55;;;15.80;99.90;;;;;;4392573;32;20090;-75
2023/06/28 00:18:14;;;;;;;0.40;0.40;;;15.90;99.90;;;;;;4392377;32;20616;-76
2023/06/28 00:20:40;;;;;;;0.52;0.52;;;15.80;99.90;;;;;;4395303;32;20125;-75
2023/06/28 00:23:06;;;;;;;0.35;0.35;;;15.70;99.90;;;;;;4393392;32;20085;-76
2023/06/28 00:25:32;;;;;;;0.62;0.60;;;15.70;99.90;;;;;;4391935;32;20106;-76
2023/06/28 00:27:57;;;;;;;0.30;0.30;;;15.70;99.90;;;;;;4391168;32;20466;-77
2023/06/28 00:30:23;;;;;;;0.30;0.30;;;15.60;99.90;;;;;;4390331;32;20082;-75
2023/06/28 00:32:48;;;;;;;0.50;0.50;;;15.70;99.90;;;;;;4389308;32;20091;-75
2023/06/28 00:35:14;;;;;;;0.88;0.70;;;15.60;99.90;;;;;;4390276;32;20114;-76
2023/06/28 00:37:41;;;;;;;4.22;0.75;;;15.60;99.90;;;;;;4390728;32;20089;-75
2023/06/28 00:40:08;;;;;;;0.40;0.40;;;15.60;99.90;;;;;;4392534;32;20094;-75
2023/06/28 00:42:34;;;;;;;0.30;0.30;;;15.50;99.90;;;;;;4392162;32;20105;-76
2023/06/28 00:44:59;;;;;;;0.40;0.40;;;15.50;99.90;;;;;;4392141;32;20485;-76
2023/06/28 00:47:26;;;;;;;0.55;0.55;;;15.60;99.90;;;;;;4392713;32;20078;-76
2023/06/28 00:49:53;;;;;;;0.40;0.40;;;15.60;99.90;;;;;;4394726;32;20062;-75
2023/06/28 00:52:19;;;;;;;4.10;0.52;;;15.50;99.90;;;;;;4392652;32;20400;-76
2023/06/28 00:54:45;;;;;;;0.30;0.30;;;15.50;99.90;;;;;;4393575;32;20086;-76
2023/06/28 00:57:11;;;;;;;0.50;0.50;;;15.50;99.90;;;;;;4391626;32;20070;-75
2023/06/28 00:59:36;;;;;;;0.30;0.30;;;15.50;99.90;;;;;;4390817;32;20146;-75
2023/06/28 01:02:02;;;;;;;0.40;0.40;;;15.60;99.90;;;;;;4394685;32;20090;-75
2023/06/28 01:04:28;;;;;;;3.55;0.57;;;15.50;99.90;;;;;;4394828;32;20090;-75
2023/06/28 01:06:59;;;;;;;0.43;0.40;;;15.50;99.90;;;;;;4391580;32;20066;-76
2023/06/28 01:09:26;;;;;;;2.78;1.30;;;15.60;99.90;;;;;;4391721;32;20205;-75
2023/06/28 01:11:53;;;;;;;1.48;0.90;;;15.60;99.90;;;;;;4394440;32;20109;-75
2023/06/28 01:14:19;;;;;;;0.40;0.40;;;15.50;99.90;;;;;;4391027;32;20731;-76
2023/06/28 01:16:49;;;;;;;0.43;0.43;;;15.50;99.90;;;;;;4392690;32;20111;-76
2023/06/28 01:19:15;;;;;;;1.08;0.75;;;15.50;99.90;;;;;;4390575;32;20097;-76
2023/06/28 01:21:44;;;;;;;0.40;0.40;;;15.60;99.90;;;;;;4393613;32;21189;-76
2023/06/28 01:24:11;;;;;;;0.30;0.30;;;15.40;99.90;;;;;;4395699;32;20074;-75
2023/06/28 01:26:38;;;;;;;2.67;1.27;;;15.40;99.90;;;;;;4394605;32;20645;-75
2023/06/28 01:29:04;;;;;;;0.62;0.52;;;15.40;99.90;;;;;;4393249;32;20641;-75
2023/06/28 01:31:30;;;;;;;3.20;0.68;;;15.40;99.90;;;;;;4392781;32;20114;-76
2023/06/28 01:33:55;;;;;;;0.30;0.30;;;15.40;99.90;;;;;;4393213;32;20070;-75
2023/06/28 01:36:21;;;;;;;0.30;0.30;;;15.50;99.90;;;;;;4392298;32;21519;-76
2023/06/28 01:38:47;;;;;;;0.55;0.52;;;15.40;99.90;;;;;;4391914;32;20091;-75
2023/06/28 01:41:14;;;;;;;0.30;0.30;;;15.40;99.90;;;;;;4393009;32;20608;-75
2023/06/28 01:43:41;;;;;;;0.40;0.40;;;15.30;99.90;;;;;;4394021;32;20474;-76
2023/06/28 01:46:07;;;;;;;1.12;0.65;;;15.30;99.90;;;;;;4393070;32;20081;-76
2023/06/28 01:48:33;;;;;;;2.60;0.40;;;15.20;99.90;;;;;;4393326;32;20098;-76
2023/06/28 01:50:59;;;;;;;0.40;0.40;;;15.20;99.90;;;;;;4392642;32;20105;-76
2023/06/28 01:53:25;;;;;;;5.65;0.75;;;15.20;99.90;;;;;;4391625;32;21432;-75
2023/06/28 01:55:50;;;;;;;0.40;0.40;;;15.20;99.90;;;;;;4392176;32;20144;-76
2023/06/28 01:58:16;;;;;;;15.57;0.50;;;15.30;99.90;;;;;;4392660;32;20404;-76
2023/06/28 02:00:41;;;;;;;0.50;0.50;;;15.20;99.90;;;;;;4391339;32;20094;-76
2023/06/28 02:03:07;;;;;;;0.37;0.37;;;15.10;99.90;;;;;;4396097;32;20429;-75
2023/06/28 02:05:32;;;;;;;0.40;0.40;;;15.10;99.90;;;;;;4394033;32;20395;-76
2023/06/28 02:07:58;;;;;;;0.40;0.40;;;15.20;99.90;;;;;;4394840;32;20400;-76
2023/06/28 02:10:24;;;;;;;0.25;0.25;;;15.10;99.90;;;;;;4390897;32;20090;-75
2023/06/28 02:12:49;;;;;;;0.40;0.40;;;15.00;99.90;;;;;;4391802;32;20137;-75
2023/06/28 02:15:15;;;;;;;0.40;0.40;;;14.90;99.90;;;;;;4391363;32;20483;-76
2023/06/28 02:17:41;;;;;;;0.45;0.45;;;14.90;99.90;;;;;;4392760;32;20537;-76
2023/06/28 02:20:09;;;;;;;1.10;0.95;;;14.90;99.90;;;;;;4391767;32;20058;-76
2023/06/28 02:22:34;;;;;;;0.40;0.40;;;14.90;99.90;;;;;;4391445;32;20120;-76
2023/06/28 02:25:00;;;;;;;5.97;0.65;;;14.90;99.90;;;;;;4390904;32;20141;-76
2023/06/28 02:27:25;;;;;;;0.40;0.40;;;14.80;99.90;;;;;;4391341;32;20494;-76
2023/06/28 02:29:51;;;;;;;0.30;0.30;;;14.80;99.90;;;;;;4391120;32;20086;-75
2023/06/28 02:32:17;;;;;;;1.05;0.98;;;14.80;99.90;;;;;;4391264;32;20141;-75
2023/06/28 02:34:43;;;;;;;1.62;0.52;;;14.80;99.90;;;;;;4391413;32;20109;-76
2023/06/28 02:37:08;;;;;;;0.30;0.30;;;14.90;99.90;;;;;;4392968;32;20082;-75
2023/06/28 02:39:34;;;;;;;10.98;0.70;;;14.70;99.90;;;;;;4392428;32;20090;-75
2023/06/28 02:41:59;;;;;;;0.62;0.62;;;14.70;99.90;;;;;;4390259;32;20090;-75
2023/06/28 02:44:25;;;;;;;0.52;0.52;;;14.80;99.90;;;;;;4390606;32;20110;-76
2023/06/28 02:46:50;;;;;;;0.82;0.47;;;14.90;99.90;;;;;;4390597;32;20081;-76
2023/06/28 02:49:16;;;;;;;0.25;0.25;;;14.80;99.90;;;;;;4389757;32;20076;-75
2023/06/28 02:51:41;;;;;;;0.30;0.30;;;14.80;99.90;;;;;;4391543;32;20132;-75
2023/06/28 02:54:06;;;;;;;0.40;0.40;;;14.80;99.90;;;;;;4391136;32;20118;-75
2023/06/28 02:56:34;;;;;;;0.50;0.50;;;14.90;99.90;;;;;;4391245;32;20093;-76
2023/06/28 02:58:59;;;;;;;0.40;0.40;;;14.80;99.90;;;;;;4391302;32;20149;-75
2023/06/28 03:01:25;;;;;;;0.40;0.40;;;14.80;99.90;;;;;;4392907;32;20521;-75
2023/06/28 03:03:51;;;;;;;0.35;0.35;;;14.80;99.90;;;;;;4390606;32;20125;-75
2023/06/28 03:06:17;;;;;;;1.70;0.80;;;14.80;99.90;;;;;;4391084;32;20066;-76
2023/06/28 03:08:42;;;;;;;1.08;0.50;;;14.80;99.90;;;;;;4391415;32;20062;-76
2023/06/28 03:11:08;;;;;;;0.47;0.47;;;14.80;99.90;;;;;;4391174;32;20070;-75
2023/06/28 03:13:34;;;;;;;0.40;0.40;;;14.90;99.90;;;;;;4391791;32;20134;-75
2023/06/28 03:16:00;;;;;;;0.50;0.50;;;14.90;99.90;;;;;;4390000;32;20082;-75
2023/06/28 03:18:25;;;;;;;0.40;0.40;;;14.90;99.90;;;;;;4388660;32;20070;-75
2023/06/28 03:20:51;;;;;;;1.27;0.40;;;14.80;99.90;;;;;;4390888;32;20857;-77
2023/06/28 03:23:16;;;;;;;0.40;0.40;;;14.80;99.90;;;;;;4390893;32;20106;-75
2023/06/28 03:25:42;;;;;;;0.40;0.40;;;14.80;99.90;;;;;;4392459;32;20814;-75
2023/06/28 03:28:07;;;;;;;0.55;0.55;;;14.90;99.90;;;;;;4390092;32;20062;-75
2023/06/28 03:30:33;;;;;;;3.30;0.90;;;14.90;99.90;;;;;;4389509;32;20094;-77
2023/06/28 03:32:59;;;;;;;0.45;0.45;;;15.00;99.90;;;;;;4388260;32;20097;-74
2023/06/28 03:35:24;;;;;;;0.95;0.95;;;15.10;99.90;;;;;;4389904;32;20094;-78
2023/06/28 03:37:52;;;;;;;0.40;0.40;;;15.00;99.90;;;;;;4389098;32;20102;-76
2023/06/28 03:40:18;;;;;;;0.37;0.37;;;15.00;99.90;;;;;;4391444;32;21173;-78
2023/06/28 03:42:43;;;;;;;5.57;1.58;;;15.00;99.90;;;;;;4389665;32;20149;-76
2023/06/28 03:45:09;;;;;;;6.03;0.90;;;15.00;99.90;;;;;;4391731;32;20090;-75
2023/06/28 03:47:34;;;;;;;0.30;0.30;;;15.00;99.90;;;;;;4389133;32;20094;-75
2023/06/28 03:50:00;;;;;;;0.88;0.47;;;15.00;99.90;;;;;;4388919;32;20530;-74
2023/06/28 03:52:25;;;;;;;0.40;0.40;;;15.00;99.90;;;;;;4389510;32;20093;-77
2023/06/28 03:54:52;;;;;;;4.85;0.52;;;15.10;99.90;;;;;;4390734;32;21228;-75
2023/06/28 03:57:18;;;;;;;0.30;0.30;;;15.10;99.90;;;;;;4390148;32;20137;-75
2023/06/28 03:59:43;;;;;;;0.98;0.60;;;15.10;99.90;;;;;;4391413;32;20458;-75
2023/06/28 04:02:08;;;;;;;0.95;0.35;;;15.10;99.90;;;;;;4391362;32;20143;-75
2023/06/28 04:04:34;;;;;;;18.33;0.50;;;15.10;99.90;;;;;;4391301;32;20460;-77
2023/06/28 04:07:01;;;;;;;0.40;0.40;;;15.10;99.90;;;;;;4388439;32;20141;-77
2023/06/28 04:09:27;;;;;;;0.40;0.40;;;15.10;99.90;;;;;;4389537;32;20134;-74
2023/06/28 04:11:52;;;;;;;0.40;0.40;;;15.10;99.90;;;;;;4390637;32;20066;-74
2023/06/28 04:14:18;;;;;;;3.12;1.52;;;15.00;99.90;;;;;;4390037;32;20082;-75
2023/06/28 04:16:43;;;;;;;0.30;0.30;;;15.00;99.90;;;;;;4388784;32;20094;-75
2023/06/28 04:19:09;;;;;;;0.40;0.40;;;15.10;99.90;;;;;;4386950;32;20452;-75
2023/06/28 04:21:34;;;;;;;0.40;0.40;;;15.20;99.90;;;;;;4377636;32;20138;-75
2023/06/28 04:24:00;;;;;;;0.50;0.50;;;15.20;99.90;;;;;;4389994;32;21231;-75
2023/06/28 04:26:25;;;;;;;0.40;0.40;;;15.20;99.90;;;;;;4390869;32;20558;-75
2023/06/28 04:28:51;;;;;;;0.90;0.55;;;15.20;99.90;;;;;;4393301;32;20078;-75
2023/06/28 04:31:16;;;;;;;0.40;0.40;;;15.30;99.90;;;;;;4388604;32;20755;-75
2023/06/28 04:33:42;;;;;;;0.40;0.40;;;15.20;99.90;;;;;;4392049;32;20818;-75
2023/06/28 04:36:09;;;;;;;0.50;0.50;;;15.20;99.90;;;;;;4391524;32;20498;-74
2023/06/28 04:38:34;;;;;;;0.55;0.55;;;15.20;99.90;;;;;;4392609;32;20082;-76
2023/06/28 04:41:00;;;;;;;0.50;0.50;;;15.30;99.90;;;;;;4393251;32;20295;-76
2023/06/28 04:43:26;;;;;;;0.50;0.50;;;15.20;99.90;;;;;;4392603;32;20117;-75
2023/06/28 04:45:51;;;;;;;0.40;0.40;;;15.30;99.90;;;;;;4392875;32;20090;-75
2023/06/28 04:48:17;;;;;;;0.62;0.62;;;15.30;99.90;;;;;;4391778;32;20082;-76
2023/06/28 04:50:43;;;;;;;6.72;0.35;;;15.40;99.90;;;;;;4388164;32;20148;-75
2023/06/28 04:53:08;;;;;;;2.10;1.40;;;15.40;99.90;;;;;;4390467;32;20165;-75
2023/06/28 04:55:34;;;;;;;0.37;0.37;;;15.50;99.90;;;;;;4391464;32;20163;-75
2023/06/28 04:58:02;;;;;;;0.40;0.40;;;15.50;99.90;;;;;;4391089;32;21587;-75
2023/06/28 05:00:29;;;;;;;3.50;0.30;;;15.50;99.90;;;;;;4387853;32;20129;-75
2023/06/28 05:02:56;;;;;;;0.30;0.30;;;15.60;99.90;;;;;;4387199;32;20128;-76
2023/06/28 05:05:24;;;;;;;0.60;0.60;;;15.70;99.90;;;;;;4388412;32;20527;-76
2023/06/28 05:07:52;;;;;;;0.28;0.28;;;15.60;99.90;;;;;;4387667;32;20153;-75
2023/06/28 05:10:17;;;;;;;0.40;0.40;;;15.60;99.90;;;;;;4390887;32;20546;-77
2023/06/28 05:12:43;;;;;;;0.37;0.37;;;15.50;99.90;;;;;;4391086;32;20180;-77
2023/06/28 05:15:09;;;;;;;6.43;0.50;;;15.50;99.90;;;;;;4392071;32;20120;-77
2023/06/28 05:17:34;;;;;;;0.60;0.60;;;15.40;99.90;;;;;;4380384;32;20075;-77
2023/06/28 05:20:00;;;;;;;0.50;0.50;;;15.30;99.90;;;;;;4388715;32;20098;-77
2023/06/28 05:22:27;;;;;;;0.47;0.47;;;15.30;99.90;;;;;;4393842;32;20098;-77
2023/06/28 05:24:53;;;;;;;0.40;0.40;;;15.30;99.90;;;;;;4392642;32;20078;-76
2023/06/28 05:27:20;;;;;;;0.70;0.70;;;15.20;99.90;;;;;;4377103;32;20085;-77
2023/06/28 05:29:46;;;;;;;0.47;0.47;;;15.20;99.90;;;;;;4383697;32;20514;-75
2023/06/28 05:32:13;;;;;;;0.30;0.30;;;15.20;99.90;;;;;;4364850;32;20085;-76
2023/06/28 05:34:39;;;;;;;0.30;0.30;;;15.10;99.90;;;;;;4386994;32;20093;-76
2023/06/28 05:37:06;;;;;;;1.33;1.23;;;15.20;99.90;;;;;;4384955;32;20238;-76
2023/06/28 05:39:33;;;;;;;0.65;0.60;;;15.20;99.90;;;;;;4385289;32;20173;-75
2023/06/28 05:42:00;;;;;;;0.93;0.68;;;15.20;99.90;;;;;;4389298;32;20522;-75
2023/06/28 05:44:26;;;;;;;0.30;0.30;;;15.20;99.90;;;;;;4377284;32;20094;-75
2023/06/28 05:46:52;;;;;;;0.40;0.40;;;15.20;99.90;;;;;;4380401;32;20153;-75
2023/06/28 05:49:18;;;;;;;3.20;1.45;;;15.40;99.90;;;;;;4382188;32;20107;-75
2023/06/28 05:51:44;;;;;;;0.40;0.40;;;15.40;99.90;;;;;;4374437;32;20618;-76
2023/06/28 05:54:09;;;;;;;0.75;0.75;;;15.50;99.90;;;;;;4379372;32;20177;-76
2023/06/28 05:56:35;;;;;;;0.50;0.50;;;15.50;99.90;;;;;;4367215;32;20082;-76
2023/06/28 05:59:00;;;;;;;0.40;0.40;;;15.70;99.90;;;;;;4364208;32;20533;-76
2023/06/28 06:01:26;;;;;;;0.50;0.50;;;15.80;99.90;;;;;;4347851;32;21433;-75
2023/06/28 06:03:52;;;;;;;0.30;0.30;;;15.90;99.90;;;;;;4354994;32;20161;-75
2023/06/28 06:06:17;;;;;;;1.50;0.88;;;16.00;99.90;;;;;;4369631;32;20107;-76
2023/06/28 06:08:43;;;;;;;0.65;0.50;;;16.10;99.90;;;;;;4367169;32;20082;-75
2023/06/28 06:11:09;;;;;;;0.40;0.35;;;16.10;99.90;;;;;;4372126;32;20635;-75
2023/06/28 06:13:34;;;;;;;0.30;0.30;;;16.20;99.90;;;;;;4368966;32;20074;-76
2023/06/28 06:16:00;;;;;;;0.30;0.30;;;16.40;99.90;;;;;;4365600;32;20086;-76
2023/06/28 06:18:26;;;;;;;6.28;0.50;;;16.40;99.90;;;;;;4371125;32;20098;-75
2023/06/28 06:20:51;;;;;;;20.27;0.77;;;16.40;99.90;;;;;;4372632;32;20554;-75
2023/06/28 06:23:18;;;;;;;0.40;0.40;;;16.50;99.90;;;;;;4374746;32;20586;-75
2023/06/28 06:25:44;;;;;;;0.30;0.30;;;16.60;99.90;;;;;;4365576;32;20098;-74
2023/06/28 06:28:09;;;;;;;0.50;0.50;;;16.70;99.90;;;;;;4365996;32;21504;-76
2023/06/28 06:30:35;;;;;;;0.50;0.50;;;16.70;99.90;;;;;;4366641;32;20097;-75
2023/06/28 06:33:00;;;;;;;11.80;0.95;;;16.70;99.90;;;;;;4366173;32;20149;-76
2023/06/28 06:35:27;;;;;;;0.85;0.68;;;16.70;99.90;;;;;;4371266;32;20162;-76
2023/06/28 06:37:53;;;;;;;5.57;0.85;;;16.70;99.90;;;;;;4366203;32;20126;-74
2023/06/28 06:40:18;;;;;;;1.98;1.30;;;16.80;99.90;;;;;;4368089;32;20118;-76
2023/06/28 06:42:45;;;;;;;3.20;1.00;;;16.80;99.90;;;;;;4368713;32;20094;-75
2023/06/28 06:45:16;;;;;;;0.50;0.50;;;16.90;99.90;;;;;;4368082;32;20110;-74
2023/06/28 06:47:43;;;;;;;0.40;0.40;;;16.90;99.90;;;;;;4366086;32;20212;-75
2023/06/28 06:50:09;;;;;;;0.30;0.30;;;17.00;99.90;;;;;;4365146;32;20172;-77
2023/06/28 06:52:37;;;;;;;1.15;0.80;;;17.10;99.90;;;;;;4368614;32;20086;-76
2023/06/28 06:55:04;;;;;;;0.30;0.30;;;17.10;99.90;;;;;;4371945;32;20563;-77
2023/06/28 06:57:29;;;;;;;0.40;0.40;;;17.10;99.90;;;;;;4367431;32;20113;-75
2023/06/28 06:59:55;;;;;;;0.47;0.47;;;17.20;99.90;;;;;;4364413;32;20567;-77
2023/06/28 07:02:21;;;;;;;1.75;0.95;;;17.10;99.90;;;;;;4367407;32;20086;-76
2023/06/28 07:04:47;;;;;;;0.30;0.30;;;17.10;99.90;;;;;;4370903;32;20234;-75
2023/06/28 07:07:13;;;;;;;0.30;0.30;;;17.30;99.90;;;;;;4374482;32;20791;-75
2023/06/28 07:09:38;;;;;;;17.55;0.50;;;17.30;99.90;;;;;;4370304;32;20094;-75
2023/06/28 07:12:04;;;;;;;0.37;0.37;;;17.40;99.90;;;;;;4371299;32;20149;-75
2023/06/28 07:14:30;;;;;;;0.30;0.30;;;17.50;99.90;;;;;;4376240;32;20257;-76
2023/06/28 07:16:55;;;;;;;0.50;0.50;;;17.60;99.90;;;;;;4372658;32;20119;-76
2023/06/28 07:19:21;;;;;;;0.40;0.40;;;17.70;99.90;;;;;;4371685;32;20081;-76
2023/06/28 07:21:46;;;;;;;0.70;0.70;;;17.90;99.90;;;;;;4377296;32;20872;-77
2023/06/28 07:24:12;;;;;;;0.70;0.70;;;18.10;99.90;;;;;;4361178;32;20149;-76
2023/06/28 07:26:39;;;;;;;1.23;0.62;;;18.10;99.90;;;;;;4369564;32;20118;-77
2023/06/28 07:29:05;;;;;;;0.30;0.30;;;18.00;99.90;;;;;;4369644;32;20081;-76
2023/06/28 07:31:31;;;;;;;2.55;0.60;;;17.80;99.90;;;;;;4374204;32;20133;-77
2023/06/28 07:33:57;;;;;;;1.17;1.10;;;17.60;99.90;;;;;;4364822;32;20098;-77
2023/06/28 07:36:23;;;;;;;0.30;0.30;;;17.60;99.90;;;;;;4375101;32;20147;-76
2023/06/28 07:38:50;;;;;;;0.75;0.73;;;17.80;99.90;;;;;;4368654;32;20794;-77
2023/06/28 07:41:16;;;;;;;0.70;0.60;;;18.10;99.90;;;;;;4380209;32;20184;-76
2023/06/28 07:43:41;;;;;;;0.30;0.30;;;18.30;99.90;;;;;;4373050;32;20097;-77
2023/06/28 07:46:07;;;;;;;0.50;0.50;;;18.50;99.90;;;;;;4371010;32;20626;-77
2023/06/28 07:48:34;;;;;;;0.37;0.37;;;18.70;99.90;;;;;;4368387;32;20101;-75
2023/06/28 07:51:00;;;;;;;0.30;0.30;;;18.80;99.90;;;;;;4371009;32;20443;-77
2023/06/28 07:53:25;;;;;;;6.57;0.60;;;18.80;99.90;;;;;;4362585;32;20154;-76
2023/06/28 07:55:51;;;;;;;0.30;0.30;;;18.70;99.90;;;;;;4364418;32;20159;-77
2023/06/28 07:58:17;;;;;;;4.18;0.75;;;18.60;99.90;;;;;;4372050;32;20701;-78
2023/06/28 08:00:43;;;;;;;0.82;0.70;;;18.70;99.90;;;;;;4379189;32;20451;-76
2023/06/28 08:03:09;;;;;;;0.35;0.35;;;18.70;99.90;;;;;;4377075;32;20074;-79
2023/06/28 08:05:34;;;;;;;0.70;0.70;;;18.80;99.90;;;;;;4380228;32;20089;-77
2023/06/28 08:08:00;;;;;;;0.30;0.30;;;18.90;99.90;;;;;;4375131;32;20078;-76
2023/06/28 08:10:25;;;;;;;0.30;0.30;;;18.90;99.90;;;;;;4374986;32;20102;-76
2023/06/28 08:12:51;;;;;;;0.30;0.30;;;18.90;99.90;;;;;;4373280;32;20710;-79
2023/06/28 08:15:18;;;;;;;0.30;0.30;;;18.90;99.90;;;;;;4368756;32;20570;-78
2023/06/28 08:17:46;;;;;;;0.30;0.30;;;18.90;99.90;;;;;;4374242;32;20141;-78
2023/06/28 08:20:14;;;;;;;0.68;0.68;;;18.80;99.90;;;;;;4374548;32;20125;-77
2023/06/28 08:22:40;;;;;;;0.60;0.60;;;18.90;99.90;;;;;;4374213;32;20161;-77
2023/06/28 08:25:05;;;;;;;0.52;0.52;;;18.80;99.90;;;;;;4373375;32;20636;-76
2023/06/28 08:27:31;;;;;;;0.57;0.57;;;18.90;99.90;;;;;;4363000;32;20082;-76
2023/06/28 08:29:57;;;;;;;1.75;0.60;;;19.00;99.90;;;;;;4368208;32;20246;-77
2023/06/28 08:32:23;;;;;;;0.40;0.40;;;19.00;99.90;;;;;;4371582;32;20094;-77
2023/06/28 08:34:48;;;;;;;0.40;0.40;;;18.90;99.90;;;;;;4377811;32;21584;-78
2023/06/28 08:37:14;;;;;;;0.50;0.50;;;18.90;99.90;;;;;;4375964;32;20147;-78
2023/06/28 08:39:39;;;;;;;0.30;0.30;;;19.20;99.90;;;;;;4382933;32;20098;-78
2023/06/28 08:42:05;;;;;;;4.05;0.50;;;19.50;99.90;;;;;;4373777;32;20184;-78
2023/06/28 08:44:32;;;;;;;0.30;0.30;;;19.80;99.90;;;;;;4370078;32;20090;-79
2023/06/28 08:47:00;;;;;;;0.30;0.30;;;19.90;99.90;;;;;;4363871;32;20917;-77
2023/06/28 08:49:27;;;;;;;0.40;0.40;;;19.90;99.90;;;;;;4368076;32;20630;-77
2023/06/28 08:51:55;;;;;;;0.20;0.20;;;19.80;99.90;;;;;;4372030;32;20602;-77
2023/06/28 08:54:23;;;;;;;0.82;0.57;;;19.90;99.90;;;;;;4365726;32;20315;-77
2023/06/28 08:56:50;;;;;;;6.18;0.65;;;20.00;99.90;;;;;;4365431;32;20469;-77
2023/06/28 08:59:16;;;;;;;0.30;0.30;;;20.00;99.90;;;;;;4359739;32;20206;-76
2023/06/28 09:01:44;;;;;;;0.32;0.32;;;19.90;99.90;;;;;;4363107;32;20103;-77
2023/06/28 09:04:10;;;;;;;0.30;0.30;;;19.90;99.90;;;;;;4361806;32;20213;-77
2023/06/28 09:06:35;;;;;;;1.12;0.95;;;20.00;99.90;;;;;;4361796;32;20130;-76
2023/06/28 09:09:02;;;;;;;0.20;0.20;;;20.00;99.90;;;;;;4360637;32;20583;-77
2023/06/28 09:11:31;;;;;;;1.87;0.65;;;19.90;99.90;;;;;;4362248;32;20094;-78
2023/06/28 09:13:57;;;;;;;0.45;0.45;;;19.80;99.90;;;;;;4367821;32;20399;-76
2023/06/28 09:16:23;;;;;;;0.30;0.30;;;19.80;99.90;;;;;;4363272;32;20192;-78
2023/06/28 09:18:49;;;;;;;0.73;0.50;;;19.90;99.90;;;;;;4371934;32;20086;-76
2023/06/28 09:21:25;;;;;;;0.50;0.40;;;20.00;99.90;;;;;;4366768;32;20097;-78
2023/06/28 09:23:52;;;;;;;0.30;0.30;;;20.20;99.90;;;;;;4357618;32;21510;-78
2023/06/28 09:26:18;;;;;;;0.30;0.30;;;20.60;99.90;;;;;;4355352;32;20156;-78
2023/06/28 09:28:43;;;;;;;0.45;0.45;;;20.60;99.90;;;;;;4363199;32;20154;-78
2023/06/28 09:31:10;;;;;;;1.17;0.57;;;20.50;99.90;;;;;;4363980;32;20094;-78
2023/06/28 09:33:35;;;;;;;0.20;0.20;;;20.50;99.90;;;;;;4365701;32;20144;-77
2023/06/28 09:36:02;;;;;;;0.30;0.30;;;20.50;99.90;;;;;;4375020;32;20110;-78
2023/06/28 09:38:28;;;;;;;2.05;1.08;;;20.60;99.90;;;;;;4362796;32;20947;-77
2023/06/28 09:41:02;;;;;;;0.40;0.40;;;20.90;99.90;;;;;;4366566;32;21114;-77
2023/06/28 09:43:31;;;;;;;0.30;0.30;;;21.00;99.90;;;;;;4358350;32;20231;-77
2023/06/28 09:45:56;;;;;;;0.20;0.20;;;21.20;99.90;;;;;;4369416;32;20135;-78
2023/06/28 09:48:24;;;;;;;5.72;0.57;;;21.20;99.90;;;;;;4363820;32;20105;-77
2023/06/28 09:50:50;;;;;;;0.30;0.30;;;21.30;99.90;;;;;;4357546;32;20090;-77
2023/06/28 09:53:19;;;;;;;0.15;0.15;;;21.20;99.90;;;;;;4362920;32;20833;-76
2023/06/28 09:55:45;;;;;;;1.10;0.40;;;21.10;99.90;;;;;;4363480;32;20901;-77
2023/06/28 09:58:12;;;;;;;0.30;0.30;;;21.00;99.90;;;;;;4367789;32;20073;-76
2023/06/28 10:00:39;;;;;;;1.73;0.70;;;21.00;99.90;;;;;;4364198;32;20119;-76
2023/06/28 10:03:07;;;;;;;0.40;0.40;;;20.90;99.90;;;;;;4366991;32;20416;-77
2023/06/28 10:05:35;;;;;;;0.50;0.50;;;21.10;99.90;;;;;;4372346;32;20077;-76
2023/06/28 10:08:03;;;;;;;0.30;0.30;;;21.50;99.90;;;;;;4377893;32;20118;-78
2023/06/28 10:10:30;;;;;;;0.20;0.20;;;21.60;99.90;;;;;;4375455;32;20170;-78
2023/06/28 10:13:00;;;;;;;0.40;0.40;;;21.40;99.90;;;;;;4378447;32;20272;-77
2023/06/28 10:15:33;;;;;;;0.55;0.55;;;21.30;99.90;;;;;;4377111;32;20097;-77
2023/06/28 10:18:05;;;;;;;0.20;0.20;;;21.70;99.90;;;;;;4377937;32;20105;-77
2023/06/28 10:20:37;;;;;;;0.22;0.22;;;22.30;99.90;;;;;;4374285;32;21848;-79
2023/06/28 10:23:06;;;;;;;0.32;0.32;;;22.40;99.90;;;;;;4375564;32;20122;-78
2023/06/28 10:25:34;;;;;;;0.20;0.20;;;22.50;99.90;;;;;;4384077;32;20093;-78
2023/06/28 10:28:01;;;;;;;0.30;0.30;;;22.50;99.90;;;;;;4372343;32;20073;-78
2023/06/28 10:30:26;;;;;;;0.57;0.57;;;22.30;99.90;;;;;;4381924;32;20550;-78
2023/06/28 10:32:53;;;;;;;0.20;0.20;;;22.20;99.90;;;;;;4377302;32;20090;-78
2023/06/28 10:35:19;;;;;;;0.17;0.17;;;22.40;99.90;;;;;;4381015;32;20074;-79
2023/06/28 10:37:45;;;;;;;7.82;1.80;;;22.60;99.90;;;;;;4386924;32;20113;-78
2023/06/28 10:40:12;;;;;;;0.20;0.20;;;22.50;99.90;;;;;;4388743;32;20202;-78
2023/06/28 10:42:39;;;;;;;1.12;0.32;;;22.60;99.90;;;;;;4381829;32;20134;-76
2023/06/28 10:45:06;;;;;;;0.55;0.35;;;22.50;99.90;;;;;;4379675;32;20081;-76
2023/06/28 10:47:34;;;;;;;0.60;0.47;;;23.00;99.90;;;;;;4373853;32;20186;-77
2023/06/28 10:50:20;;;;;;;0.40;0.40;;;22.80;99.90;;;;;;4376420;32;20778;-76
2023/06/28 10:52:48;;;;;;;0.30;0.30;;;22.40;99.90;;;;;;4360453;32;20110;-76
2023/06/28 10:55:34;;;;;;;0.30;0.30;;;22.60;99.90;;;;;;4363146;32;20467;-76
2023/06/28 10:58:05;;;;;;;0.20;0.20;;;22.90;99.90;;;;;;4355335;32;20190;-77
2023/06/28 11:00:41;;;;;;;0.50;0.45;;;23.60;99.90;;;;;;4367734;32;21127;-76
2023/06/28 11:03:07;;;;;;;0.20;0.20;;;23.70;99.90;;;;;;4374573;32;20673;-76
2023/06/28 11:05:53;;;;;;;0.20;0.20;;;23.50;99.90;;;;;;4375984;32;20829;-77
2023/06/28 11:08:20;;;;;;;0.20;0.20;;;23.60;99.30;;;;;;4363951;32;20528;-76
2023/06/28 11:10:48;;;;;;;0.30;0.30;;;23.90;98.50;;;;;;4376875;32;20078;-76
2023/06/28 11:13:29;;;;;;;2.10;0.95;;;24.20;99.30;;;;;;4374677;32;20423;-76
2023/06/28 11:16:06;;;;;;;0.28;0.22;;;24.50;97.00;;;;;;4363947;32;20587;-76
2023/06/28 11:18:32;;;;;;;0.52;0.52;;;24.40;97.70;;;;;;4367431;32;20140;-77
2023/06/28 11:20:58;;;;;;;0.32;0.32;;;24.20;99.10;;;;;;4372456;32;20732;-79
2023/06/28 11:23:29;;;;;;;3.08;1.58;;;24.50;99.00;;;;;;4368267;32;20106;-77
2023/06/28 11:25:59;;;;;;;0.20;0.20;;;24.80;97.40;;;;;;4357863;32;20113;-76
2023/06/28 11:28:29;;;;;;;0.10;0.10;;;24.50;96.70;;;;;;4377640;32;20095;-76
2023/06/28 11:31:16;;;;;;;3.47;1.10;;;24.20;97.80;;;;;;4376826;32;20149;-77
2023/06/28 11:33:42;;;;;;;0.10;0.10;;;23.90;97.60;;;;;;4370251;32;20087;-76
2023/06/28 11:36:14;;;;;;;0.37;0.37;;;23.40;97.40;;;;;;4371583;32;20282;-77
2023/06/28 11:38:45;;;;;;;0.22;0.22;;;23.50;96.90;;;;;;4374987;32;20085;-77
2023/06/28 11:41:13;;;;;;;;;;;23.60;97.30;;;;;;4376176;32;20449;-77
2023/06/28 11:43:38;;;;;;;0.57;0.30;;;23.60;98.40;;;;;;4376606;32;20052;-77
2023/06/28 11:46:04;;;;;;;0.20;0.20;;;24.00;97.80;;;;;;4375034;32;109832;-77
2023/06/28 11:48:31;;;;;;;0.28;0.28;;;24.20;96.40;;;;;;4374527;32;20085;-76
2023/06/28 11:50:59;;;;;;;0.20;0.20;;;24.40;96.50;;;;;;4374531;32;20391;-77
2023/06/28 11:53:26;;;;;;;0.40;0.20;;;24.20;96.80;;;;;;4366468;32;20201;-76
2023/06/28 11:55:53;;;;;;;0.20;0.20;;;23.90;96.90;;;;;;4367989;32;21572;-77
2023/06/28 11:58:35;;;;;;;2.05;0.57;;;23.60;98.00;;;;;;4370729;32;20196;-77
2023/06/28 12:01:03;;;;;;;0.30;0.30;;;23.50;98.00;;;;;;4373434;32;20089;-77
2023/06/28 12:03:34;;;;;;;0.35;0.30;;;23.50;97.50;;;;;;4371085;32;20518;-76
2023/06/28 12:06:01;;;;;;;0.43;0.43;;;23.60;98.80;;;;;;4375192;32;20086;-77
2023/06/28 12:08:36;;;;;;;1.95;0.98;;;23.60;97.50;;;;;;4373247;32;20240;-76
2023/06/28 12:11:07;;;;;;;0.20;0.20;;;23.50;97.60;;;;;;4368557;32;20177;-76
2023/06/28 12:13:33;;;;;;;3.30;1.37;;;23.50;97.80;;;;;;4372962;32;20529;-77
2023/06/28 12:16:11;;;;;;;0.20;0.20;;;23.50;98.00;;;;;;4376864;32;20097;-77
2023/06/28 12:18:59;;;;;;;2.78;0.28;;;23.40;98.10;;;;;;4375653;32;20190;-77
2023/06/28 12:21:26;;;;;;;0.43;0.43;;;23.60;98.20;;;;;;4367924;32;20691;-77
2023/06/28 12:23:52;;;;;;;0.68;0.52;;;23.60;97.90;;;;;;4376198;32;20530;-78
2023/06/28 12:26:18;;;;;;;0.52;0.43;;;24.00;97.00;;;;;;4365328;32;20387;-77
2023/06/28 12:28:48;;;;;;;0.20;0.20;;;25.00;97.50;;;;;;4370850;32;20150;-76
2023/06/28 12:31:14;;;;;;;2.53;0.20;;;26.10;94.70;;;;;;4363669;32;20287;-78
2023/06/28 12:33:40;;;;;;;0.20;0.20;;;26.20;94.50;;;;;;4372101;32;20387;-78
2023/06/28 12:36:06;;;;;;;0.10;0.10;;;25.70;94.40;;;;;;4374551;32;20087;-77
2023/06/28 12:38:32;;;;;;;0.10;0.10;;;26.20;93.60;;;;;;4377076;32;20519;-77
2023/06/28 12:41:03;;;;;;;0.50;0.20;;;26.60;92.90;;;;;;4368852;32;20118;-77
2023/06/28 12:43:30;;;;;;;0.03;0.03;;;26.70;93.60;;;;;;4370785;32;20545;-77
2023/06/28 12:45:56;;;;;;;1.00;0.25;;;27.00;93.10;;;;;;4372932;32;21096;-77